Tiempo atmosférico en la estación meteorológica de Larraga, Navarra (375 m.)



Fecha
DESCASC
Temp. máxima en grados centígrados (hora)
DESCASC
Temp. mínima en grados centígrados (hora)
DESCASC
Temp. media en grados centígrados
DESCASC
Racha de viento máxima en m/sg (hora)
DESCASC
Velocidad máxima media en intervalos de 10 minutos(hora)
DESCASC
Precipitaciones diarias en mm
DESCASC
Precipitaciones de 00:00 a 06:00 en mm
DESCASC
Precipitaciones de 06:00 a 12:00 en mm
DESCASC
Precipitaciones de 12:00 a 18:00 en mm
DESCASC
Precipitaciones de 18:00 a 24:00 en mm
DESCASC
10-11-2019 -- (--) -- (--) -- -- (--) -- (--) -- -- -- -- --
09-11-2019 11.4 (14:50) 6.2 (00:00) 8.8 12.22 (14:50) 7.5 (21:40) 1.8 0 0 0.8 1
08-11-2019 8.3 (11:50) 3 (00:00) 5.7 17.78 (13:10) 12.22 (13:10) 21 0 0.4 12.8 7.8
07-11-2019 13.2 (16:00) 4 (00:00) 8.6 13.61 (18:50) 8.61 (18:50) 9.4 6.8 2.2 0 0.4
06-11-2019 13.7 (15:20) 8.4 (00:00) 11 12.22 (05:40) 8.33 (05:40) 2.4 2 0 0 0.4
05-11-2019 13.5 (14:10) 7.3 (00:00) 10.4 18.33 (16:20) 11.39 (16:20) 11.2 0 0 0.2 11
04-11-2019 19.6 (13:30) 7.3 (00:00) 13.5 11.11 (15:00) 6.67 (16:20) 6 0 0 1.8 4.2
03-11-2019 16.1 (14:30) 9.8 (00:00) 13 18.33 (06:50) 12.22 (06:50) 3.6 0.6 3 0 0
02-11-2019 18.5 (15:40) 12.6 (00:00) 15.6 6.94 (17:40) 4.44 (12:30) 1.2 0 1 0.2 0
01-11-2019 21.3 (15:10) 11.9 (00:00) 16.6 7.78 (18:40) 3.89 (16:00) 3 0 0 2.8 0.2
31-10-2019 19.7 (14:20) 12.3 (22:30) 16 8.61 (14:20) 5.83 (14:30) 0.8 0.6 0.2 0 0
30-10-2019 20.5 (14:40) 8.5 (00:00) 14.5 5 (14:20) 3.06 (14:20) 0 0 0 0 0
29-10-2019 23.2 (15:30) 8.7 (00:00) 16 5.83 (15:30) 3.61 (15:40) 0 0 0 0 0
28-10-2019 21.1 (15:00) 11.5 (00:00) 16.3 5.56 (15:20) 3.33 (14:50) 0 0 0 0 0
27-10-2019 20.7 (15:10) 7.4 (00:00) 14.1 5.28 (15:00) 3.06 (14:40) 0 0 0 0 0
26-10-2019 21.3 (17:20) 5.9 (00:00) 13.6 5.83 (15:20) 3.06 (14:40) 0 0 0 0 0
25-10-2019 21.3 (17:20) 7.4 (00:00) 14.3 3.89 (07:30) 2.78 (00:10) 0.2 0 0.2 0 0
24-10-2019 15.6 (17:50) 8.9 (00:00) 12.3 10.83 (00:20) 6.11 (00:20) 3 1.6 1 0.4 0
23-10-2019 14.9 (17:40) 9.5 (00:00) 12.2 6.11 (14:10) 4.44 (15:40) 0.4 0 0.4 0 0
22-10-2019 12.3 (13:30) 5.3 (04:00) 8.8 15.83 (17:20) 10.28 (17:20) 11.6 0 0 3.8 7.8
21-10-2019 15.9 (17:20) 6.9 (00:00) 11.4 5.28 (19:40) 3.61 (19:40) 0 0 0 0 0
20-10-2019 16.4 (00:00) 9.1 (00:00) 12.8 12.22 (03:20) 8.06 (00:20) 6.8 4 0.6 2 0.2
19-10-2019 21.4 (16:40) 13.3 (00:00) 17.3 15 (15:20) 10.83 (17:20) 0 0 0 0 0
18-10-2019 20.9 (14:40) 13.4 (00:00) 17.1 13.89 (03:20) 8.61 (03:20) 1 0.8 0.2 0 0
17-10-2019 21.8 (16:30) 11.6 (00:00) 16.7 10 (23:20) 6.67 (14:10) 0 0 0 0 0
16-10-2019 21.8 (16:10) 6.1 (00:00) 13.9 8.33 (15:00) 5.56 (15:10) 0 0 0 0 0
15-10-2019 -- (--) -- (--) -- -- (--) -- (--) -- -- -- -- 0
14-10-2019 -- (--) -- (--) -- -- (--) -- (--) -- 0 0 4.2 --

Gráficas

Temp. máximas Temp. mínimas Temp. medias Precipitaciones Rachas de viento máximas Velocidades máximas media en intervalos de 10 minutos

Datos horarios

Fecha y hora oficial Temperatura (ºC) Velocidad del viento (km/h) Dirección del viento Racha (km/h) Dirección de racha Precipitación (mm) Presión (hPa) Tendencia (hPa) Humedad (%)
2019-11-12 23:00:00 8.1 5 Sudeste 6 Sudeste 0.2 -- -- 90
2019-11-12 22:00:00 8.5 3 Noroeste 11 Noroeste 0.2 -- -- 88
2019-11-12 21:00:00 9.3 13 Oeste 27 Oeste 0.2 -- -- 81
2019-11-12 20:00:00 9.4 10 Oeste 18 Oeste 0 -- -- 80
2019-11-12 19:00:00 9.7 4 Noroeste 11 Noroeste 0 -- -- 80
2019-11-12 18:00:00 10.9 8 Oeste 13 Oeste 0 -- -- 72
2019-11-12 17:00:00 11.6 12 Oeste 20 Oeste 0 -- -- 69
2019-11-12 16:00:00 11.9 15 Noroeste 23 Noroeste 0 -- -- 68
2019-11-12 15:00:00 11.5 18 Oeste 35 Oeste 0 -- -- 67
2019-11-12 14:00:00 11.3 19 Oeste 29 Noroeste 0 -- -- 66
2019-11-12 13:00:00 10.8 20 Noroeste 33 Noroeste 0 -- -- 69
2019-11-12 12:00:00 10.6 23 Noroeste 35 Noroeste 0 -- -- 71
2019-11-12 11:00:00 9.8 17 Oeste 28 Oeste 0 -- -- 74
2019-11-12 10:00:00 9.3 15 Oeste 29 Oeste 0 -- -- 77
2019-11-12 09:00:00 7.6 14 Oeste 21 Oeste 0 -- -- 83
2019-11-12 08:00:00 6.3 15 Oeste 21 Oeste 0 -- -- 87
2019-11-12 07:00:00 6.4 6 Oeste 19 Oeste 0 -- -- 86
2019-11-12 06:00:00 6.7 13 Oeste 21 Oeste 0 -- -- 85
2019-11-12 05:00:00 6.6 9 Oeste 18 Oeste 0 -- -- 86
2019-11-12 04:00:00 6.2 8 Oeste 23 Oeste 0 -- -- 86
2019-11-12 03:00:00 6.3 11 Oeste 16 Oeste 0 -- -- 84
2019-11-12 02:00:00 5.8 9 Noroeste 32 Oeste 0 -- -- 86
2019-11-12 01:00:00 6.4 19 Oeste 27 Noroeste 0 -- -- 82
2019-11-12 00:00:00 6.5 23 Oeste 29 Oeste 0 -- -- 79
2019-11-11 23:00:00 6 7 Noroeste 14 Noroeste 0 -- -- 83
2019-11-11 22:00:00 6.5 9 Noroeste 21 Noroeste 0 -- -- 86
2019-11-11 21:00:00 6.4 14 Noroeste 22 Oeste 0.2 -- -- 85
2019-11-11 20:00:00 7.3 17 Oeste 42 Oeste 0.4 -- -- 86
2019-11-11 19:00:00 7.9 21 Noroeste 27 Noroeste 0 -- -- 80
2019-11-11 18:00:00 8.3 19 Oeste 35 Noroeste 0 -- -- 81
2019-11-11 17:00:00 8.7 25 Noroeste 45 Noroeste 0.2 -- -- 82
2019-11-11 16:00:00 9.6 25 Noroeste 51 Noroeste 0 -- -- 83
2019-11-11 15:00:00 10.1 15 Noroeste 22 Noroeste 0.2 -- -- 92
2019-11-11 14:00:00 7.7 2 Nordeste 9 Este 0.4 -- -- 96
2019-11-11 13:00:00 7.3 8 Este -- -- -- -- -- 95
2019-11-11 12:00:00 -- -- -- -- -- -- -- -- --
2019-11-11 11:00:00 -- -- -- -- -- -- -- -- --
2019-11-11 10:00:00 -- -- -- -- -- -- -- -- --
2019-11-11 09:00:00 -- -- -- -- -- -- -- -- --
2019-11-11 08:00:00 -- -- -- -- -- -- -- -- --
2019-11-11 07:00:00 -- -- -- -- -- -- -- -- --
2019-11-11 06:00:00 -- -- -- -- -- -- -- -- --
2019-11-11 05:00:00 -- -- -- -- -- -- -- -- --
2019-11-11 04:00:00 -- -- -- -- -- -- -- -- --
2019-11-11 03:00:00 -- -- -- -- -- -- -- -- --
2019-11-11 02:00:00 -- -- -- -- -- -- -- -- --
2019-11-11 01:00:00 -- -- -- -- -- -- -- -- --
2019-11-11 00:00:00 -- -- -- -- -- -- -- -- --
2019-11-10 23:00:00 -- -- -- -- -- -- -- -- --
2019-11-10 22:00:00 -- -- -- -- -- -- -- -- --
2019-11-10 21:00:00 -- -- -- -- -- -- -- -- --
2019-11-10 20:00:00 -- -- -- -- -- -- -- -- --
2019-11-10 19:00:00 -- -- -- -- -- -- -- -- --
2019-11-10 18:00:00 -- -- -- -- -- -- -- -- --
2019-11-10 17:00:00 -- -- -- -- -- -- -- -- --
2019-11-10 16:00:00 -- -- -- -- -- -- -- -- --
2019-11-10 15:00:00 -- -- -- -- -- -- -- -- --
2019-11-10 14:00:00 -- -- -- -- -- -- -- -- --
2019-11-10 13:00:00 -- -- -- -- -- -- -- -- --
2019-11-10 12:00:00 -- -- -- -- -- -- -- -- --
2019-11-10 11:00:00 -- -- -- -- -- -- -- -- --
2019-11-10 10:00:00 -- -- -- -- -- -- -- -- --
2019-11-10 09:00:00 -- -- -- -- -- -- -- -- --
2019-11-10 08:00:00 -- -- -- -- -- -- -- -- --
2019-11-10 07:00:00 -- -- -- -- -- -- -- -- --
2019-11-10 06:00:00 -- -- -- -- -- -- -- -- --
2019-11-10 05:00:00 -- -- -- -- -- -- -- -- --
2019-11-10 04:00:00 -- -- -- -- -- -- -- -- --
2019-11-10 03:00:00 6.3 10 Oeste 28 Oeste 0 -- -- 82
2019-11-10 02:00:00 6.4 13 Oeste 40 Oeste 0 -- -- 80
2019-11-10 01:00:00 6.1 23 Oeste 29 Oeste 0 -- -- 84
2019-11-10 00:00:00 6.2 5 Oeste 26 Oeste 0 -- -- 87
2019-11-09 23:00:00 6.2 14 Noroeste 34 Noroeste 0.2 -- -- 87
2019-11-09 22:00:00 8.1 22 Noroeste 39 Oeste 0.6 -- -- 83
2019-11-09 21:00:00 9.6 18 Noroeste 30 Noroeste 0.2 -- -- 85
2019-11-09 20:00:00 10.5 21 Oeste 33 Oeste 0 -- -- 76
2019-11-09 19:00:00 9.4 8 Noroeste 30 Noroeste 0 -- -- 85
2019-11-09 18:00:00 10.7 18 Oeste 32 Oeste 0 -- -- 75
2019-11-09 17:00:00 9.8 3 Sur 19 Este 0 -- -- 81
2019-11-09 16:00:00 10.2 0 Calma 30 Oeste 0.2 -- -- 79
2019-11-09 15:00:00 11.3 14 Oeste 44 Oeste 0 -- -- 71
2019-11-09 14:00:00 9.7 10 Oeste 23 Oeste 0.6 -- -- 77
2019-11-09 13:00:00 10.2 15 Oeste 35 Oeste 0 -- -- 72
2019-11-09 12:00:00 10.6 14 Oeste 22 Sudoeste 0 -- -- 70
2019-11-09 11:00:00 9.4 5 Sudoeste 12 Sudoeste 0 -- -- 77
2019-11-09 10:00:00 8 2 Este 10 Noroeste 0 -- -- 83
2019-11-09 09:00:00 7.2 2 Sudeste 24 Oeste 0 -- -- 87
2019-11-09 08:00:00 7.5 22 Oeste 41 Oeste 0 -- -- 82
2019-11-09 07:00:00 6.7 18 Oeste 27 Oeste 0 -- -- 85
2019-11-09 06:00:00 6.9 18 Oeste 31 Oeste 0 -- -- 86
2019-11-09 05:00:00 6.5 23 Oeste 33 Oeste 0 -- -- 88
2019-11-09 04:00:00 6.5 20 Oeste 34 Oeste 0 -- -- 88
2019-11-09 03:00:00 6.7 19 Oeste 31 Oeste 0 -- -- 87
2019-11-09 02:00:00 6.9 16 Oeste 25 Oeste 0 -- -- 85
2019-11-09 01:00:00 6.8 15 Oeste 28 Oeste 0 -- -- 87
2019-11-09 00:00:00 6.6 9 Oeste 32 Sudoeste 0 -- -- 90
2019-11-08 23:00:00 6.6 15 Oeste 45 Oeste 0.4 -- -- 89
2019-11-08 22:00:00 6.9 23 Oeste 36 Sudoeste 0.4 -- -- 88
2019-11-08 21:00:00 6.3 14 Oeste 39 Oeste 2 -- -- 92
2019-11-08 20:00:00 6.3 18 Oeste 28 Oeste 1.6 -- -- 92
2019-11-08 19:00:00 5.7 16 Oeste 37 Oeste 3.4 -- -- 92
2019-11-08 18:00:00 5.7 21 Oeste 39 Oeste 2.4 -- -- 91
2019-11-08 17:00:00 5.7 24 Oeste 38 Oeste 2.2 -- -- 90
2019-11-08 16:00:00 5.2 20 Oeste 47 Oeste 3 -- -- 91
2019-11-08 15:00:00 5.4 30 Oeste 55 Oeste 1.8 -- -- 87
2019-11-08 14:00:00 5.8 38 Oeste 64 Oeste 3.2 -- -- 86
2019-11-08 13:00:00 7.6 27 Oeste 54 Oeste 0.2 -- -- 79
2019-11-08 12:00:00 8.1 24 Oeste 50 Oeste 0 -- -- 74
2019-11-08 11:00:00 6.8 21 Oeste 42 Oeste 0.2 -- -- 81
2019-11-08 10:00:00 6.6 22 Oeste 39 Oeste 0.2 -- -- 79
2019-11-08 09:00:00 6.2 22 Oeste 37 Oeste 0 -- -- 75
2019-11-08 08:00:00 5.2 15 Oeste 34 Oeste 0 -- -- 79
2019-11-08 07:00:00 5.7 28 Oeste 49 Oeste 0 -- -- 76
2019-11-08 06:00:00 5.3 27 Oeste 55 Oeste 0 -- -- 80
2019-11-08 05:00:00 6 26 Oeste 41 Oeste 0 -- -- 73
2019-11-08 04:00:00 5.8 24 Oeste 41 Oeste 0 -- -- 75
2019-11-08 03:00:00 4.1 9 Noroeste 20 Oeste 0 -- -- 82
2019-11-08 02:00:00 4.2 4 Oeste 13 Noroeste 0 -- -- 83
2019-11-08 01:00:00 3.1 4 Norte 23 Oeste 0 -- -- 92
2019-11-08 00:00:00 4.3 4 Oeste 10 Oeste 0 -- -- 89
2019-11-07 23:00:00 4.4 3 Sudoeste 5 Sudoeste 0 -- -- 90
2019-11-07 22:00:00 5.4 0 Calma 9 Norte 0 -- -- 89
2019-11-07 21:00:00 5.9 0 Calma 12 Norte 0 -- -- 86
2019-11-07 20:00:00 6.2 6 Norte 18 Noroeste 0.4 -- -- 85
2019-11-07 19:00:00 6.6 22 Noroeste 49 Noroeste 0 -- -- 84
2019-11-07 18:00:00 8.4 13 Noroeste 21 Noroeste 0 -- -- 78
2019-11-07 17:00:00 8.9 15 Noroeste 40 Oeste 0 -- -- 82
2019-11-07 16:00:00 13.2 6 Sur 12 Sur 0 -- -- 61
2019-11-07 15:00:00 11.9 4 Sudoeste 13 Nordeste 0 -- -- 68
2019-11-07 14:00:00 11.5 0 Calma 16 Oeste 0 -- -- 68
2019-11-07 13:00:00 11.3 4 Sudoeste 14 Oeste 0 -- -- 74
2019-11-07 12:00:00 9.8 13 Noroeste 23 Noroeste 0 -- -- 76
2019-11-07 11:00:00 9.2 12 Oeste 27 Oeste 0.4 -- -- 83
2019-11-07 10:00:00 8.8 6 Noroeste 34 Oeste 0.2 -- -- 89
2019-11-07 09:00:00 8.5 6 Oeste 17 Oeste 1 -- -- 96
2019-11-07 08:00:00 8.5 2 Sur 6 Sudoeste 0.2 -- -- 97
2019-11-07 07:00:00 8.5 3 Sur 6 Sur 0.4 -- -- 96
2019-11-07 06:00:00 8.6 0 Calma 12 Norte 2 -- -- 96
2019-11-07 05:00:00 8.7 7 Norte 12 Norte 2.2 -- -- 95
2019-11-07 04:00:00 8.8 0 Calma 8 Sudeste 2 -- -- 94
2019-11-07 03:00:00 9 3 Oeste 14 Este 0.4 -- -- 91
2019-11-07 02:00:00 9.1 5 Sur 20 Este 0.2 -- -- 89
2019-11-07 01:00:00 9.2 5 Sudoeste 19 Sudeste 0 -- -- 88
2019-11-07 00:00:00 8.9 6 Sudeste 12 Sudeste 0.4 -- -- 90
2019-11-06 23:00:00 9.4 0 Calma 18 Sudeste 0 -- -- 84
2019-11-06 22:00:00 9 2 Sur 18 Sudeste 0 -- -- 85
2019-11-06 21:00:00 9.3 5 Sudeste 10 Sudeste 0 -- -- 82
2019-11-06 20:00:00 9.9 8 Sur 15 Sudeste 0 -- -- 78
2019-11-06 19:00:00 10.6 4 Sudeste 12 Sudeste 0 -- -- 76
2019-11-06 18:00:00 12.2 6 Este 8 Este 0 -- -- 67
2019-11-06 17:00:00 13 2 Noroeste 16 Noroeste 0 -- -- 66
2019-11-06 16:00:00 13.2 13 Noroeste 30 Noroeste 0 -- -- 64
2019-11-06 15:00:00 13 18 Noroeste 30 Oeste 0 -- -- 63
2019-11-06 14:00:00 12.5 14 Noroeste 31 Noroeste 0 -- -- 70
2019-11-06 13:00:00 12.1 12 Oeste 26 Oeste 0 -- -- 72
2019-11-06 12:00:00 11.6 14 Oeste 25 Oeste 0 -- -- 74
2019-11-06 11:00:00 11.2 14 Oeste 25 Oeste 0 -- -- 75
2019-11-06 10:00:00 10.7 17 Noroeste 29 Oeste 0 -- -- 77
2019-11-06 09:00:00 9.5 19 Oeste 30 Oeste 0 -- -- 82
2019-11-06 08:00:00 9.3 18 Oeste 34 Oeste 0 -- -- 82
2019-11-06 07:00:00 9.7 26 Oeste 39 Oeste 0 -- -- 77
2019-11-06 06:00:00 9.6 26 Oeste 44 Oeste 0 -- -- 76
2019-11-06 05:00:00 9.1 21 Oeste 33 Oeste 0 -- -- 84
2019-11-06 04:00:00 8.8 11 Oeste 24 Sudoeste 0.2 -- -- 90
2019-11-06 03:00:00 8.6 9 Oeste 28 Oeste 0 -- -- 92
2019-11-06 02:00:00 8.5 14 Oeste 29 Oeste 0.4 -- -- 93
2019-11-06 01:00:00 8.6 17 Oeste 30 Oeste 1.4 -- -- 92
2019-11-06 00:00:00 8.5 16 Oeste 27 Sudoeste 1 -- -- 91
2019-11-05 23:00:00 8.1 12 Oeste 31 Oeste 5.8 -- -- 93
2019-11-05 22:00:00 8.4 17 Oeste 31 Oeste 1.6 -- -- 91
2019-11-05 21:00:00 8.2 8 Sudoeste 33 Oeste 1.2 -- -- 89
2019-11-05 20:00:00 8.8 21 Oeste 30 Oeste 1 -- -- 86
2019-11-05 19:00:00 9 16 Oeste 51 Oeste 0.4 -- -- 84
2019-11-05 18:00:00 9.7 29 Oeste 52 Oeste 0 -- -- 72
2019-11-05 17:00:00 11 25 Oeste 66 Oeste 0.2 -- -- 71
2019-11-05 16:00:00 12 26 Oeste 49 Oeste 0 -- -- 64
2019-11-05 15:00:00 12.7 32 Oeste 57 Oeste 0 -- -- 62
2019-11-05 14:00:00 13 30 Oeste 58 Oeste 0 -- -- 60
2019-11-05 13:00:00 12.2 27 Oeste 51 Oeste 0 -- -- 68
2019-11-05 12:00:00 10.9 26 Oeste 58 Oeste 0 -- -- 69
2019-11-05 11:00:00 11 31 Oeste 46 Oeste 0 -- -- 66
2019-11-05 10:00:00 10 21 Oeste 41 Oeste 0 -- -- 69
2019-11-05 09:00:00 10.3 18 Oeste 37 Oeste 0 -- -- 68
2019-11-05 08:00:00 9.3 24 Oeste 52 Oeste 0 -- -- 69
2019-11-05 07:00:00 9.1 27 Oeste 37 Oeste 0 -- -- 70
2019-11-05 06:00:00 8.7 10 Oeste 43 Oeste 0 -- -- 72
2019-11-05 05:00:00 7.9 19 Noroeste 49 Oeste 0 -- -- 75
2019-11-05 04:00:00 9 21 Oeste 41 Oeste 0 -- -- 72
2019-11-05 03:00:00 9.5 26 Oeste 43 Oeste 0 -- -- 72
2019-11-05 02:00:00 9.5 23 Oeste 37 Oeste 0 -- -- 73
2019-11-05 01:00:00 8.1 5 Oeste 33 Oeste 0 -- -- 86
2019-11-05 00:00:00 7.3 12 Noroeste 15 Noroeste 0 -- -- 94
2019-11-04 23:00:00 8.7 8 Norte 23 Norte 0 -- -- 94
2019-11-04 22:00:00 9.6 11 Norte 26 Noroeste 1.2 -- -- 92
2019-11-04 21:00:00 9.9 13 Norte 21 Noroeste 1.8 -- -- 91
2019-11-04 20:00:00 10.9 16 Norte 30 Norte 1.2 -- -- 87
2019-11-04 19:00:00 11.9 21 Norte 33 Nordeste 0 -- -- 81
2019-11-04 18:00:00 12.8 20 Norte 34 Oeste 0 -- -- 82
2019-11-04 17:00:00 15.9 19 Oeste 40 Oeste 0 -- -- 70
2019-11-04 16:00:00 16.6 23 Oeste 33 Oeste 0.2 -- -- 72
2019-11-04 15:00:00 16.2 21 Oeste 40 Oeste 1.6 -- -- 80
2019-11-04 14:00:00 18.8 8 Sur 21 Oeste 0 -- -- 63
2019-11-04 13:00:00 18.3 8 Oeste 24 Oeste 0 -- -- 59
2019-11-04 12:00:00 19.3 12 Sudeste 18 Sudeste 0 -- -- 57
2019-11-04 11:00:00 17.6 4 Sudeste 22 Sudeste 0 -- -- 60
2019-11-04 10:00:00 14.2 18 Sudeste 27 Sudeste 0 -- -- 75
2019-11-04 09:00:00 13.9 10 Sudeste 19 Sudeste 0 -- -- 75
2019-11-04 08:00:00 11.8 7 Sur 15 Sudeste 0 -- -- 80
2019-11-04 07:00:00 11.4 4 Sudeste 18 Sudeste 0 -- -- 81
2019-11-04 06:00:00 11.9 8 Sur 20 Sur 0 -- -- 77
2019-11-04 05:00:00 11.9 5 Sudoeste 24 Sudeste 0 -- -- 77
2019-11-04 04:00:00 11.8 6 Sur 15 Sudeste 0 -- -- 77
2019-11-04 03:00:00 12.5 0 Calma 23 Sudeste 0 -- -- 72
2019-11-04 02:00:00 12.5 13 Sudeste 33 Sudeste 0 -- -- 73
2019-11-04 01:00:00 12.6 14 Sudeste 29 Sudeste 0 -- -- 69
2019-11-04 00:00:00 11.9 8 Sudeste 18 Sudeste 0 -- -- 77
2019-11-03 23:00:00 11.9 14 Este 21 Sudeste 0 -- -- 76
2019-11-03 22:00:00 13.2 3 Sur 10 Sudeste 0 -- -- 67
2019-11-03 21:00:00 12.9 4 Sudoeste 15 Oeste 0 -- -- 64
2019-11-03 20:00:00 13.7 12 Oeste 21 Oeste 0 -- -- 60
2019-11-03 19:00:00 13.5 3 Sudoeste 30 Oeste 0 -- -- 57
2019-11-03 18:00:00 14.6 20 Oeste 46 Oeste 0 -- -- 53
2019-11-03 17:00:00 15.8 22 Oeste 42 Oeste 0 -- -- 50
2019-11-03 16:00:00 16 32 Oeste 51 Oeste 0 -- -- 48
2019-11-03 15:00:00 15.8 26 Oeste 51 Oeste 0 -- -- 49
2019-11-03 14:00:00 15.3 32 Noroeste 51 Oeste 0 -- -- 50
2019-11-03 13:00:00 14.1 33 Oeste 48 Oeste 0 -- -- 54
2019-11-03 12:00:00 12.7 19 Oeste 35 Oeste 0 -- -- 62
2019-11-03 11:00:00 12.2 16 Oeste 30 Oeste 0 -- -- 62
2019-11-03 10:00:00 11.8 15 Oeste 35 Oeste 0 -- -- 64
2019-11-03 09:00:00 11.2 11 Oeste 35 Oeste 0 -- -- 62
2019-11-03 08:00:00 10.3 18 Oeste 54 Oeste 0.2 -- -- 73
2019-11-03 07:00:00 10 38 Oeste 66 Noroeste 2.8 -- -- 80
2019-11-03 06:00:00 12.9 24 Noroeste 40 Noroeste 0.6 -- -- 87
2019-11-03 05:00:00 13.4 8 Noroeste 21 Sudeste 0 -- -- 78
2019-11-03 04:00:00 13.6 15 Sudeste 21 Sudeste 0 -- -- 76
2019-11-03 03:00:00 13.8 14 Sudeste 21 Sudeste 0 -- -- 74
2019-11-03 02:00:00 14.5 4 Sur 10 Sudoeste 0 -- -- 67
2019-11-03 01:00:00 14.7 2 Sudoeste 10 Oeste 0 -- -- 65
2019-11-03 00:00:00 14 4 Sur 15 Oeste 0 -- -- 72
2019-11-02 23:00:00 14.8 2 Sudoeste 13 Oeste 0 -- -- 67
2019-11-02 22:00:00 15.2 4 Sudoeste 12 Sur 0 -- -- 65
2019-11-02 21:00:00 15.5 4 Sudoeste 21 Oeste 0 -- -- 66
2019-11-02 20:00:00 15.2 4 Sudoeste 12 Sur 0 -- -- 74
2019-11-02 19:00:00 16.2 4 Oeste 19 Oeste 0 -- -- 68
2019-11-02 18:00:00 17.2 8 Sudoeste 25 Oeste 0 -- -- 68
2019-11-02 17:00:00 17.7 5 Sur 13 Sudoeste 0 -- -- 76
2019-11-02 16:00:00 18.4 6 Sur 21 Sur 0 -- -- 75
2019-11-02 15:00:00 18.1 5 Sudoeste 18 Oeste 0 -- -- 78
2019-11-02 14:00:00 18 7 Sur 15 Sur 0.2 -- -- 82
2019-11-02 13:00:00 17.6 11 Sur 21 Sudeste 0 -- -- 80
2019-11-02 12:00:00 16.3 8 Sur 14 Sur 0 -- -- 91
2019-11-02 11:00:00 15.1 0 Calma 8 Noroeste 0.4 -- -- 95
2019-11-02 10:00:00 14.2 4 Nordeste 9 Noroeste 0.4 -- -- 95
2019-11-02 09:00:00 13.4 4 Noroeste 9 Noroeste 0.2 -- -- 95
2019-11-02 08:00:00 12.8 5 Sur 8 Sur 0 -- -- 94
2019-11-02 07:00:00 12.6 4 Norte 10 Sur 0 -- -- 93
2019-11-02 06:00:00 13.1 14 Sudeste 20 Sudeste 0 -- -- 94
2019-11-02 05:00:00 13.5 4 Sur 10 Sur 0 -- -- 91
2019-11-02 04:00:00 14 4 Sur 9 Oeste 0 -- -- 88
2019-11-02 03:00:00 14.8 0 Calma 8 Sudeste 0 -- -- 88
2019-11-02 02:00:00 14.4 5 Sur 8 Sur 0 -- -- 89
2019-11-02 01:00:00 15 0 Calma 8 Sudeste 0 -- -- 89
2019-11-02 00:00:00 14.2 5 Este 9 Sur 0 -- -- 92
2019-11-01 23:00:00 15.4 5 Sudoeste 12 Sur 0 -- -- 95
2019-11-01 22:00:00 15.4 2 Nordeste 12 Sur 0.2 -- -- 95
2019-11-01 21:00:00 15.9 0 Calma 9 Nordeste 0 -- -- 94
2019-11-01 20:00:00 16.5 5 Nordeste 12 Noroeste 0 -- -- 94
2019-11-01 19:00:00 16.9 4 Noroeste 28 Este 0 -- -- 91
2019-11-01 18:00:00 17.5 7 Sur 17 Noroeste 2.6 -- -- 91
2019-11-01 17:00:00 19.1 11 Sudeste 18 Sur 0.2 -- -- 81
2019-11-01 16:00:00 20.6 14 Sudeste 19 Sudeste 0 -- -- 72
2019-11-01 15:00:00 21.1 10 Este 16 Sudeste 0 -- -- 69
2019-11-01 14:00:00 20.2 5 Este 12 Este 0 -- -- 68
2019-11-01 13:00:00 20.2 5 Sudeste 10 Sur 0 -- -- 68
2019-11-01 12:00:00 17.6 2 Noroeste 9 Sudeste 0 -- -- 77
2019-11-01 11:00:00 16.3 0 Calma 6 Norte 0 -- -- 81
2019-11-01 10:00:00 14.7 2 Nordeste 4 Nordeste 0 -- -- 86
2019-11-01 09:00:00 13.2 0 Calma 7 Sudeste 0 -- -- 94
2019-11-01 08:00:00 12.4 2 Oeste 8 Noroeste 0 -- -- 95
2019-11-01 07:00:00 12.3 3 Norte 8 Nordeste 0 -- -- 94
2019-11-01 06:00:00 12.5 3 Noroeste 4 Noroeste 0 -- -- 93
2019-11-01 05:00:00 12.3 2 Noroeste 5 Sudoeste 0 -- -- 92
2019-11-01 04:00:00 12.5 0 Calma 7 Noroeste 0 -- -- 93
2019-11-01 03:00:00 12.3 4 Nordeste 8 Norte 0 -- -- 93
2019-11-01 02:00:00 11.9 5 Noroeste 8 Noroeste 0 -- -- 92
2019-11-01 01:00:00 12.6 3 Norte 6 Noroeste 0 -- -- 89
2019-11-01 00:00:00 12.8 0 Calma 8 Norte 0 -- -- 90
2019-10-31 23:00:00 12.6 8 Norte 11 Norte 0 -- -- 91
2019-10-31 22:00:00 13.8 4 Norte 8 Norte 0 -- -- 87
2019-10-31 21:00:00 14.1 0 Calma 10 Nordeste 0 -- -- 83
2019-10-31 20:00:00 15.3 9 Nordeste 20 Nordeste 0 -- -- 79
2019-10-31 19:00:00 16.2 9 Nordeste 16 Este 0 -- -- 76
2019-10-31 18:00:00 16.6 9 Nordeste 24 Norte 0 -- -- 75
2019-10-31 17:00:00 18.7 8 Norte 15 Noroeste 0 -- -- 67
2019-10-31 16:00:00 19.2 9 Nordeste 28 Noroeste 0 -- -- 63
2019-10-31 15:00:00 19.3 12 Noroeste 31 Noroeste 0 -- -- 61
2019-10-31 14:00:00 19.4 19 Noroeste 26 Noroeste 0 -- -- 61
2019-10-31 13:00:00 18.5 17 Oeste 27 Oeste 0 -- -- 66
2019-10-31 12:00:00 17.7 5 Oeste 19 Oeste 0.2 -- -- 77
2019-10-31 11:00:00 16.8 5 Oeste 14 Oeste 0 -- -- 83
2019-10-31 10:00:00 15.4 5 Oeste 13 Oeste 0 -- -- 90
2019-10-31 09:00:00 14.8 9 Oeste 14 Oeste 0 -- -- 91
2019-10-31 08:00:00 14.2 6 Noroeste 18 Oeste 0 -- -- 92
2019-10-31 07:00:00 14.8 14 Oeste 23 Oeste 0 -- -- 94
2019-10-31 06:00:00 14.6 3 Sudoeste 9 Oeste 0 -- -- 94
2019-10-31 05:00:00 14.6 4 Sudoeste 6 Oeste 0 -- -- 95
2019-10-31 04:00:00 14.4 0 Calma 13 Noroeste 0.4 -- -- 94
2019-10-31 03:00:00 14.6 8 Noroeste 10 Noroeste 0.2 -- -- 90
2019-10-31 02:00:00 15 3 Norte 9 Noroeste 0 -- -- 84
2019-10-31 01:00:00 15.2 2 Sur 6 Sur 0 -- -- 81
2019-10-31 00:00:00 15.1 0 Calma 6 Noroeste 0 -- -- 82
2019-10-30 23:00:00 15.4 0 Calma 7 Este 0 -- -- 82
2019-10-30 22:00:00 16 2 Nordeste 6 Nordeste 0 -- -- 76
2019-10-30 21:00:00 15.8 2 Sudoeste 6 Noroeste 0 -- -- 79
2019-10-30 20:00:00 16.6 0 Calma 6 Sudoeste 0 -- -- 74
2019-10-30 19:00:00 17.1 4 Sudoeste 6 Sur 0 -- -- 71
2019-10-30 18:00:00 18.1 2 Sur 6 Sudeste 0 -- -- 69
2019-10-30 17:00:00 19.1 4 Sur 13 Sur 0 -- -- 66
2019-10-30 16:00:00 19.8 8 Sur 15 Sur 0 -- -- 63
2019-10-30 15:00:00 20.4 8 Sur 18 Sudeste 0 -- -- 61
2019-10-30 14:00:00 20 7 Sudeste 15 Este 0 -- -- 64
2019-10-30 13:00:00 19.5 8 Este 15 Este 0 -- -- 65
2019-10-30 12:00:00 17.2 3 Sudoeste 8 Oeste 0 -- -- 74
2019-10-30 11:00:00 14.7 4 Sudeste 8 Sudeste 0 -- -- 83
2019-10-30 10:00:00 11.9 0 Calma 5 Noroeste 0 -- -- 98
2019-10-30 09:00:00 8.9 3 Noroeste 6 Noroeste 0 -- -- 97
2019-10-30 08:00:00 8.8 4 Norte 5 Noroeste 0 -- -- 95
2019-10-30 07:00:00 9.5 0 Calma 4 Norte 0 -- -- 95
2019-10-30 06:00:00 10.3 3 Noroeste 6 Noroeste 0 -- -- 96
2019-10-30 05:00:00 11.3 0 Calma 3 Noroeste 0 -- -- 95
2019-10-30 04:00:00 11.1 0 Calma 5 Norte 0 -- -- 94
2019-10-30 03:00:00 11.7 0 Calma 10 Norte 0 -- -- 92
2019-10-30 02:00:00 12.7 7 Norte 9 Norte 0 -- -- 91
2019-10-30 01:00:00 13.1 3 Norte 6 Noroeste 0 -- -- 87
2019-10-30 00:00:00 13.6 4 Norte 4 Noroeste 0 -- -- 87
2019-10-29 23:00:00 14.9 3 Oeste 6 Noroeste 0 -- -- 81
2019-10-29 22:00:00 15.7 0 Calma 6 Oeste 0 -- -- 82
2019-10-29 21:00:00 16.7 0 Calma 11 Noroeste 0 -- -- 81
2019-10-29 20:00:00 16.5 8 Noroeste 10 Noroeste 0 -- -- 80
2019-10-29 19:00:00 18.1 3 Sudoeste 8 Norte 0 -- -- 70
2019-10-29 18:00:00 19.3 2 Sudeste 11 Sur 0 -- -- 68
2019-10-29 17:00:00 20.2 9 Sur 18 Sur 0 -- -- 66
2019-10-29 16:00:00 22 12 Sur 21 Sur 0 -- -- 58
2019-10-29 15:00:00 22.3 5 Sudoeste 21 Sudoeste 0 -- -- 58
2019-10-29 14:00:00 21.6 8 Sudoeste 15 Oeste 0 -- -- 62
2019-10-29 13:00:00 20.1 4 Oeste 14 Oeste 0 -- -- 67
2019-10-29 12:00:00 18.9 4 Sudeste 10 Sudeste 0 -- -- 71
2019-10-29 11:00:00 15.6 0 Calma 4 Sudeste 0 -- -- 84
2019-10-29 10:00:00 13 0 Calma 5 Noroeste 0 -- -- 95
2019-10-29 09:00:00 10.4 0 Calma 6 Noroeste 0 -- -- 98
2019-10-29 08:00:00 8.9 0 Calma 6 Noroeste 0 -- -- 97
2019-10-29 07:00:00 9.3 2 Norte 3 Noroeste 0 -- -- 96
2019-10-29 06:00:00 9.8 0 Calma 3 Norte 0 -- -- 96
2019-10-29 05:00:00 9.7 0 Calma 4 Noroeste 0 -- -- 95
2019-10-29 04:00:00 10.7 3 Noroeste 6 Norte 0 -- -- 94
2019-10-29 03:00:00 10.7 0 Calma 3 Noroeste 0 -- -- 95
2019-10-29 02:00:00 11.1 2 Norte 6 Noroeste 0 -- -- 95
2019-10-29 01:00:00 11 5 Norte 9 Noroeste 0 -- -- 93
2019-10-29 00:00:00 12 5 Norte 8 Norte 0 -- -- 92
2019-10-28 23:00:00 12 4 Noroeste 9 Noroeste 0 -- -- 92
2019-10-28 22:00:00 12.3 5 Noroeste 7 Noroeste 0 -- -- 90
2019-10-28 21:00:00 13.9 0 Calma 6 Nordeste 0 -- -- 85
2019-10-28 20:00:00 15.3 3 Norte 7 Noroeste 0 -- -- 80
2019-10-28 19:00:00 16.7 4 Oeste 6 Sur 0 -- -- 75
2019-10-28 18:00:00 18.1 4 Sur 13 Sur 0 -- -- 70
2019-10-28 17:00:00 20 7 Sudeste 17 Sudeste 0 -- -- 64
2019-10-28 16:00:00 20.9 12 Sudeste 20 Este 0 -- -- 59
2019-10-28 15:00:00 21.1 10 Sudeste 19 Sudeste 0 -- -- 60
2019-10-28 14:00:00 19.6 9 Sudeste 16 Sudeste 0 -- -- 65
2019-10-28 13:00:00 18.2 5 Sudeste 11 Sudeste 0 -- -- 69
2019-10-28 12:00:00 16.2 5 Sudeste 9 Noroeste 0 -- -- 77
2019-10-28 11:00:00 14.9 0 Calma 5 Oeste 0 -- -- 85
2019-10-28 10:00:00 12.6 2 Sudoeste 4 Oeste 0 -- -- 94
2019-10-28 09:00:00 11.9 0 Calma 6 Sudoeste 0 -- -- 94
2019-10-28 08:00:00 11.9 2 Este 7 Norte 0 -- -- 94
2019-10-28 07:00:00 11.7 0 Calma 8 Nordeste 0 -- -- 94
2019-10-28 06:00:00 12 4 Nordeste 7 Nordeste 0 -- -- 92
2019-10-28 05:00:00 12 5 Noroeste 10 Noroeste 0 -- -- 92
2019-10-28 04:00:00 12.2 4 Norte 7 Noroeste 0 -- -- 92
2019-10-28 03:00:00 12.5 4 Noroeste 9 Noroeste 0 -- -- 91
2019-10-28 02:00:00 13.2 3 Norte 10 Noroeste 0 -- -- 89
2019-10-28 01:00:00 13.2 0 Calma 7 Noroeste 0 -- -- 88
2019-10-28 00:00:00 13.5 4 Oeste 14 Nordeste 0 -- -- 87
2019-10-27 23:00:00 13.4 2 Nordeste 6 Norte 0 -- -- 88
2019-10-27 22:00:00 13.8 4 Nordeste 8 Noroeste 0 -- -- 86
2019-10-27 21:00:00 14 6 Noroeste 10 Nordeste 0 -- -- 86
2019-10-27 20:00:00 15.3 0 Calma 8 Noroeste 0 -- -- 80
2019-10-27 19:00:00 16.5 0 Calma 4 Noroeste 0 -- -- 75
2019-10-27 18:00:00 17.9 3 Sur 5 Sur 0 -- -- 69
2019-10-27 17:00:00 18.9 0 Calma 7 Oeste 0 -- -- 63
2019-10-27 16:00:00 19.4 3 Sur 15 Sudoeste 0 -- -- 61
2019-10-27 15:00:00 20.3 9 Sur 19 Sudeste 0 -- -- 58
2019-10-27 14:00:00 18.8 6 Este 13 Este 0 -- -- 62
2019-10-27 13:00:00 16.4 3 Oeste 9 Oeste 0 -- -- 71
2019-10-27 12:00:00 16 3 Sur 7 Sudoeste 0 -- -- 72
2019-10-27 11:00:00 14.4 3 Sudeste 7 Sudeste 0 -- -- 78
2019-10-27 10:00:00 11.7 3 Noroeste 8 Noroeste 0 -- -- 91
2019-10-27 09:00:00 8.5 0 Calma 7 Sur 0 -- -- 96
2019-10-27 08:00:00 7.6 0 Calma 8 Noroeste 0 -- -- 96
2019-10-27 07:00:00 7.5 6 Noroeste 9 Noroeste 0 -- -- 95
2019-10-27 06:00:00 8.2 3 Norte 4 Noroeste 0 -- -- 93
2019-10-27 05:00:00 8.8 0 Calma 3 Noroeste 0 -- -- 93
2019-10-27 04:00:00 9.6 2 Norte 7 Norte 0 -- -- 92
2019-10-27 03:00:00 9.7 4 Norte 9 Noroeste 0 -- -- 92
2019-10-27 02:00:00 10.2 4 Noroeste 9 Norte 0 -- -- 92
2019-10-27 01:00:00 11.1 4 Norte 8 Noroeste 0 -- -- 94
2019-10-27 00:00:00 11.4 5 Norte 14 Noroeste 0 -- -- 92
2019-10-26 23:00:00 12.9 3 Norte 8 Noroeste 0 -- -- 89
2019-10-26 22:00:00 13.4 5 Noroeste 8 Noroeste 0 -- -- 88
2019-10-26 21:00:00 15.6 0 Calma 4 Noroeste 0 -- -- 80
2019-10-26 20:00:00 17.4 0 Calma 5 Sur 0 -- -- 73
2019-10-26 19:00:00 18.9 2 Sur 10 Sur 0 -- -- 68
2019-10-26 18:00:00 20.5 5 Sur 12 Sur 0 -- -- 62
2019-10-26 17:00:00 20.9 8 Sur 17 Sur 0 -- -- 62
2019-10-26 16:00:00 21 7 Sur 21 Sur 0 -- -- 60
2019-10-26 15:00:00 20.2 8 Sur 18 Sur 0 -- -- 63
2019-10-26 14:00:00 18.3 8 Sudeste 17 Sudeste 0 -- -- 67
2019-10-26 13:00:00 16.6 9 Sur 13 Sur 0 -- -- 72
2019-10-26 12:00:00 14.5 5 Sur 10 Sur 0 -- -- 82
2019-10-26 11:00:00 11.5 0 Calma 5 Noroeste 0 -- -- 98
2019-10-26 10:00:00 8 2 Noroeste 7 Noroeste 0 -- -- 98
2019-10-26 09:00:00 6.2 0 Calma 4 Noroeste 0 -- -- 97
2019-10-26 08:00:00 7.2 0 Calma 4 Noroeste 0 -- -- 97
2019-10-26 07:00:00 7.4 3 Noroeste 6 Noroeste 0 -- -- 97
2019-10-26 06:00:00 7.9 0 Calma 5 Noroeste 0 -- -- 97
2019-10-26 05:00:00 8.2 3 Noroeste 10 Noroeste 0 -- -- 96
2019-10-26 04:00:00 9.3 6 Noroeste 8 Noroeste 0 -- -- 96
2019-10-26 03:00:00 10 3 Noroeste 5 Noroeste 0 -- -- 95
2019-10-26 02:00:00 10.4 2 Noroeste 5 Noroeste 0 -- -- 94
2019-10-26 01:00:00 11.4 4 Noroeste 9 Norte 0 -- -- 94
2019-10-26 00:00:00 12 4 Norte 5 Norte 0 -- -- 92
2019-10-25 23:00:00 12.7 6 Noroeste 9 Noroeste 0 -- -- 90
2019-10-25 22:00:00 14.4 5 Norte 10 Noroeste 0 -- -- 86
2019-10-25 21:00:00 15.2 6 Norte 9 Norte 0 -- -- 82
2019-10-25 20:00:00 17.2 2 Sur 8 Sudeste 0 -- -- 71
2019-10-25 19:00:00 18.6 6 Sudeste 8 Sudeste 0 -- -- 70
2019-10-25 18:00:00 20.4 0 Calma 4 Nordeste 0 -- -- 60
2019-10-25 17:00:00 21.2 0 Calma 8 Este 0 -- -- 55
2019-10-25 16:00:00 20.4 5 Este 10 Noroeste 0 -- -- 58
2019-10-25 15:00:00 19.1 3 Nordeste 10 Nordeste 0 -- -- 63
2019-10-25 14:00:00 17.3 3 Norte 7 Norte 0 -- -- 72
2019-10-25 13:00:00 14.8 2 Noroeste 10 Sur 0 -- -- 84
2019-10-25 12:00:00 12.6 3 Sur 6 Sudeste 0 -- -- 98
2019-10-25 11:00:00 9.6 3 Norte 6 Noroeste 0 -- -- 98
2019-10-25 10:00:00 8.2 5 Noroeste 8 Noroeste 0.2 -- -- 98
2019-10-25 09:00:00 7.5 4 Noroeste 12 Noroeste 0 -- -- 98
2019-10-25 08:00:00 8.1 10 Noroeste 14 Noroeste 0 -- -- 97
2019-10-25 07:00:00 7.8 8 Norte 11 Norte 0 -- -- 97
2019-10-25 06:00:00 7.9 4 Noroeste 9 Noroeste 0 -- -- 95
2019-10-25 05:00:00 8.6 9 Norte 11 Norte 0 -- -- 95
2019-10-25 04:00:00 8.6 4 Sudeste 8 Norte 0 -- -- 95
2019-10-25 03:00:00 9.2 5 Noroeste 9 Norte 0 -- -- 93
2019-10-25 02:00:00 10.4 2 Norte 6 Nordeste 0 -- -- 91
2019-10-25 01:00:00 10.3 2 Sudeste 12 Noroeste 0 -- -- 93
2019-10-25 00:00:00 10.6 10 Noroeste 15 Norte 0 -- -- 93
2019-10-24 23:00:00 12.3 13 Norte 16 Norte 0 -- -- 85
2019-10-24 22:00:00 13.7 10 Noroeste 18 Noroeste 0 -- -- 80
2019-10-24 21:00:00 14.1 10 Noroeste 14 Oeste 0 -- -- 76
2019-10-24 20:00:00 14.2 5 Oeste 7 Oeste 0 -- -- 73
2019-10-24 19:00:00 14.9 3 Oeste 15 Oeste 0 -- -- 72
2019-10-24 18:00:00 15.6 8 Oeste 15 Oeste 0 -- -- 69
2019-10-24 17:00:00 14.6 9 Noroeste 17 Noroeste 0 -- -- 72
2019-10-24 16:00:00 13.6 15 Noroeste 21 Noroeste 0.2 -- -- 79
2019-10-24 15:00:00 13.6 8 Noroeste 29 Noroeste 0.2 -- -- 73
2019-10-24 14:00:00 14.1 10 Oeste 27 Oeste 0 -- -- 68
2019-10-24 13:00:00 13.2 3 Sur 10 Sudoeste 0 -- -- 74
2019-10-24 12:00:00 11.2 5 Nordeste 9 Nordeste 0.2 -- -- 84
2019-10-24 11:00:00 10.7 3 Este 5 Este 0 -- -- 87
2019-10-24 10:00:00 9.2 3 Sudoeste 6 Sudeste 0 -- -- 94
2019-10-24 09:00:00 9 2 Sudeste 5 Este 0 -- -- 94
2019-10-24 08:00:00 8.9 0 Calma 2 Norte 0.4 -- -- 92
2019-10-24 07:00:00 9 0 Calma 15 Oeste 0.4 -- -- 93
2019-10-24 06:00:00 9.1 5 Oeste 14 Sudoeste 0.2 -- -- 93
2019-10-24 05:00:00 9.3 2 Sudoeste 13 Oeste 0.6 -- -- 91
2019-10-24 04:00:00 9.8 3 Oeste 8 Oeste 0.4 -- -- 89
2019-10-24 03:00:00 10.1 7 Oeste 14 Oeste 0 -- -- 88
2019-10-24 02:00:00 10.6 3 Noroeste 18 Oeste 0.2 -- -- 90
2019-10-24 01:00:00 10.9 15 Oeste 39 Oeste 0.2 -- -- 88
2019-10-24 00:00:00 11.2 7 Sur 15 Sudoeste 0 -- -- 92
2019-10-23 23:00:00 11.1 3 Este 9 Este 0 -- -- 91
2019-10-23 22:00:00 11.4 9 Este 12 Este 0 -- -- 89
2019-10-23 21:00:00 12.1 2 Nordeste 8 Oeste 0 -- -- 88
2019-10-23 20:00:00 12.2 5 Sur 15 Sudeste 0 -- -- 85
2019-10-23 19:00:00 13.6 8 Sudeste 16 Este 0 -- -- 82
2019-10-23 18:00:00 14.5 8 Este 18 Sudeste 0 -- -- 79
2019-10-23 17:00:00 14.5 7 Sur 20 Sur 0 -- -- 79
2019-10-23 16:00:00 14.4 13 Sur 22 Sur 0 -- -- 82
2019-10-23 15:00:00 13.6 8 Sur 22 Sur 0 -- -- 84
2019-10-23 14:00:00 13.3 15 Sur 20 Sur 0 -- -- 87
2019-10-23 13:00:00 13.1 6 Sur 12 Este 0 -- -- 85
2019-10-23 12:00:00 12.5 7 Este 15 Este 0 -- -- 88
2019-10-23 11:00:00 11.5 5 Norte 9 Noroeste 0 -- -- 91
2019-10-23 10:00:00 10.7 3 Sudoeste 15 Norte 0.4 -- -- 93
2019-10-23 09:00:00 10.4 10 Noroeste 19 Norte 0 -- -- 90
2019-10-23 08:00:00 9.5 4 Noroeste 13 Norte 0 -- -- 93
2019-10-23 07:00:00 10.2 7 Norte 14 Noroeste 0 -- -- 90
2019-10-23 06:00:00 10.1 4 Noroeste 16 Oeste 0 -- -- 93
2019-10-23 05:00:00 10.2 10 Oeste 19 Oeste 0 -- -- 95
2019-10-23 04:00:00 10 4 Sudoeste 17 Noroeste 0 -- -- 95
2019-10-23 03:00:00 9.6 10 Noroeste 15 Noroeste 0 -- -- 96
2019-10-23 02:00:00 9.6 5 Oeste 13 Oeste 0 -- -- 96
2019-10-23 01:00:00 9.6 4 Sur 14 Oeste 0 -- -- 95
2019-10-23 00:00:00 9.6 6 Oeste 13 Sudoeste 0.2 -- -- 94
2019-10-22 23:00:00 9.7 7 Noroeste 17 Norte 0.2 -- -- 92
2019-10-22 22:00:00 9.4 10 Noroeste 30 Norte 1 -- -- 92
2019-10-22 21:00:00 9.9 18 Noroeste 32 Norte 0.2 -- -- 87
2019-10-22 20:00:00 9.3 18 Noroeste 33 Norte 4.2 -- -- 92
2019-10-22 19:00:00 9.6 24 Noroeste 50 Noroeste 2 -- -- 87
2019-10-22 18:00:00 9.2 34 Norte 57 Norte 1 -- -- 88
2019-10-22 17:00:00 10.3 33 Noroeste 52 Norte 0.4 -- -- 81
2019-10-22 16:00:00 10.3 28 Noroeste 44 Noroeste 1 -- -- 83
2019-10-22 15:00:00 10.6 21 Noroeste 37 Norte 1.4 -- -- 85
2019-10-22 14:00:00 12.2 18 Noroeste 28 Noroeste 0 -- -- 72
2019-10-22 13:00:00 12 12 Noroeste 27 Norte 0 -- -- 73
2019-10-22 12:00:00 11.1 8 Norte 14 Norte 0 -- -- 77
2019-10-22 11:00:00 8.3 5 Oeste 10 Oeste 0 -- -- 91
2019-10-22 10:00:00 7 3 Sur 9 Noroeste 0 -- -- 91
2019-10-22 09:00:00 6.6 3 Oeste 12 Noroeste 0 -- -- 89
2019-10-22 08:00:00 6.4 6 Noroeste 12 Noroeste 0 -- -- 90
2019-10-22 07:00:00 5.5 6 Noroeste 10 Oeste 0 -- -- 93
2019-10-22 06:00:00 5.4 6 Noroeste 8 Oeste 0 -- -- 90
2019-10-22 05:00:00 6 3 Oeste 15 Noroeste 0 -- -- 91
2019-10-22 04:00:00 5.3 11 Noroeste 15 Noroeste 0 -- -- 91
2019-10-22 03:00:00 5.9 3 Noroeste 12 Noroeste 0 -- -- 92
2019-10-22 02:00:00 6.1 5 Noroeste 9 Noroeste 0 -- -- 90
2019-10-22 01:00:00 6.9 8 Noroeste 17 Noroeste 0 -- -- 89
2019-10-22 00:00:00 7 9 Noroeste 12 Noroeste 0 -- -- 89
2019-10-21 23:00:00 8.4 6 Noroeste 12 Norte 0 -- -- 85
2019-10-21 22:00:00 9.7 6 Norte 19 Norte 0 -- -- 82
2019-10-21 21:00:00 11.6 9 Norte 15 Norte 0 -- -- 74
2019-10-21 20:00:00 12.8 9 Norte 19 Norte 0 -- -- 70
2019-10-21 19:00:00 14.5 8 Nordeste 13 Este 0 -- -- 56
2019-10-21 18:00:00 15.5 8 Nordeste 14 Este 0 -- -- 53
2019-10-21 17:00:00 15.5 6 Nordeste 13 Norte 0 -- -- 51
2019-10-21 16:00:00 14.9 2 Norte 10 Nordeste 0 -- -- 52
2019-10-21 15:00:00 14.3 4 Noroeste 9 Sur 0 -- -- 54
2019-10-21 14:00:00 14.9 2 Nordeste 9 Sudeste 0 -- -- 55
2019-10-21 13:00:00 13.6 5 Noroeste 12 Noroeste 0 -- -- 64
2019-10-21 12:00:00 12.1 6 Noroeste 10 Noroeste 0 -- -- 71
2019-10-21 11:00:00 10.4 4 Noroeste 8 Noroeste 0 -- -- 80
2019-10-21 10:00:00 8.8 4 Oeste 9 Oeste 0 -- -- 88
2019-10-21 09:00:00 8.2 3 Norte 9 Oeste 0 -- -- 90
2019-10-21 08:00:00 8.4 0 Calma 10 Noroeste 0 -- -- 93
2019-10-21 07:00:00 8.5 3 Oeste 6 Noroeste 0 -- -- 92
2019-10-21 06:00:00 8.5 0 Calma 6 Este 0 -- -- 90
2019-10-21 05:00:00 8.5 0 Calma 9 Noroeste 0 -- -- 89
2019-10-21 04:00:00 8.3 4 Norte 5 Norte 0 -- -- 90
2019-10-21 03:00:00 8.6 3 Oeste 10 Oeste 0 -- -- 89
2019-10-21 02:00:00 8.7 10 Oeste 14 Oeste 0 -- -- 87
2019-10-21 01:00:00 8.7 5 Oeste 15 Oeste 0 -- -- 89
2019-10-21 00:00:00 9.1 6 Sudoeste 14 Oeste 0 -- -- 89
2019-10-20 23:00:00 10 6 Sudoeste 17 Oeste 0 -- -- 87
2019-10-20 22:00:00 10.3 9 Oeste 15 Oeste 0 -- -- 87
2019-10-20 21:00:00 10.6 3 Oeste 15 Oeste 0 -- -- 89
2019-10-20 20:00:00 10.9 11 Oeste 22 Oeste 0.2 -- -- 84
2019-10-20 19:00:00 12 8 Noroeste 17 Oeste 0 -- -- 82
2019-10-20 18:00:00 12 12 Oeste 26 Oeste 0.4 -- -- 85
2019-10-20 17:00:00 12.8 19 Oeste 27 Noroeste 1.6 -- -- 76
2019-10-20 16:00:00 14.5 23 Noroeste 30 Noroeste 0 -- -- 68
2019-10-20 15:00:00 15.2 17 Noroeste 29 Noroeste 0 -- -- 62
2019-10-20 14:00:00 15.8 18 Noroeste 29 Oeste 0 -- -- 64
2019-10-20 13:00:00 15.1 15 Oeste 24 Oeste 0 -- -- 63
2019-10-20 12:00:00 15.2 8 Noroeste 15 Oeste 0 -- -- 67
2019-10-20 11:00:00 14.5 5 Sudoeste 13 Sudoeste 0 -- -- 74
2019-10-20 10:00:00 12.8 10 Sudeste 14 Sudeste 0 -- -- 92
2019-10-20 09:00:00 12.2 0 Calma 6 Oeste 0 -- -- 91
2019-10-20 08:00:00 12.2 0 Calma 7 Sur 0.2 -- -- 94
2019-10-20 07:00:00 12.3 2 Sur 13 Sur 0.4 -- -- 92
2019-10-20 06:00:00 13.9 6 Sudoeste 37 Sudeste 0 -- -- 88
2019-10-20 05:00:00 14.3 27 Sudeste 40 Sudeste 0 -- -- 89
2019-10-20 04:00:00 14.1 16 Sudeste 44 Sudeste 0.4 -- -- 92
2019-10-20 03:00:00 13.4 23 Sudeste 32 Sudeste 0.8 -- -- 92
2019-10-20 02:00:00 13.8 24 Sudeste 36 Sudeste 2.6 -- -- 91
2019-10-20 01:00:00 15.7 23 Sudeste 41 Sudeste 0.2 -- -- 79
2019-10-20 00:00:00 16.4 25 Sudeste 37 Sudeste 0 -- -- 73
2019-10-19 23:00:00 18.1 25 Sudeste 36 Sudeste 0 -- -- 59
2019-10-19 22:00:00 18.2 23 Sudeste 45 Sudeste 0 -- -- 58
2019-10-19 21:00:00 18.2 25 Sudeste 36 Sudeste 0 -- -- 56
2019-10-19 20:00:00 17.2 21 Sudeste 30 Sudeste 0 -- -- 55
2019-10-19 19:00:00 18.5 26 Sudeste 40 Sudeste 0 -- -- 51
2019-10-19 18:00:00 20.1 30 Sudeste 53 Sur 0 -- -- 46
2019-10-19 17:00:00 21.3 35 Sur 47 Sur 0 -- -- 42
2019-10-19 16:00:00 20.9 30 Sudeste 54 Sudeste 0 -- -- 44
2019-10-19 15:00:00 20 27 Sudeste 43 Sudeste 0 -- -- 47
2019-10-19 14:00:00 20.6 29 Sudeste 43 Sudeste 0 -- -- 48
2019-10-19 13:00:00 19.2 22 Sur 34 Sur 0 -- -- 55
2019-10-19 12:00:00 17 17 Sudeste 22 Sudeste 0 -- -- 71
2019-10-19 11:00:00 15.7 6 Este 15 Este 0 -- -- 83
2019-10-19 10:00:00 14.2 0 Calma 4 Sur 0 -- -- 92
2019-10-19 09:00:00 13.4 3 Oeste 9 Noroeste 0 -- -- 92
2019-10-19 08:00:00 14 7 Sudeste 14 Sudeste 0 -- -- 91
2019-10-19 07:00:00 14.4 3 Sur 4 Sur 0 -- -- 90
2019-10-19 06:00:00 14.4 0 Calma 7 Oeste 0 -- -- 90
2019-10-19 05:00:00 14.7 3 Sudeste 9 Este 0 -- -- 88
2019-10-19 04:00:00 15.2 6 Norte 9 Norte 0 -- -- 83
2019-10-19 03:00:00 15 5 Norte 7 Noroeste 0 -- -- 87
2019-10-19 02:00:00 15.5 5 Oeste 12 Sudoeste 0 -- -- 84
2019-10-19 01:00:00 16.3 10 Sur 32 Sudeste 0 -- -- 81
2019-10-19 00:00:00 16.7 26 Sudeste 35 Sudeste 0 -- -- 80
2019-10-18 23:00:00 16.8 23 Sudeste 36 Sudeste 0 -- -- 81
2019-10-18 22:00:00 17 26 Sudeste 36 Sur 0 -- -- 81
2019-10-18 21:00:00 16.8 13 Sudeste 25 Sudeste 0 -- -- 81
2019-10-18 20:00:00 17.8 18 Sudeste 25 Sudeste 0 -- -- 78
2019-10-18 19:00:00 18.4 15 Sudeste 28 Sudeste 0 -- -- 76
2019-10-18 18:00:00 19 16 Sudeste 23 Sudeste 0 -- -- 72
2019-10-18 17:00:00 19.7 15 Sudeste 21 Sudeste 0 -- -- 70
2019-10-18 16:00:00 20.1 12 Sudeste 21 Sur 0 -- -- 58
2019-10-18 15:00:00 20.2 10 Sudeste 18 Sur 0 -- -- 65
2019-10-18 14:00:00 18.7 2 Este 11 Sur 0 -- -- 73
2019-10-18 13:00:00 17.5 4 Sur 17 Sur 0 -- -- 80
2019-10-18 12:00:00 15.9 4 Sudeste 9 Sur 0 -- -- 85
2019-10-18 11:00:00 14.9 5 Sur 8 Sur 0 -- -- 90
2019-10-18 10:00:00 14 0 Calma 6 Sudoeste 0 -- -- 93
2019-10-18 09:00:00 13.7 0 Calma 10 Sudeste 0 -- -- 93
2019-10-18 08:00:00 13.7 6 Sur 19 Sudeste 0.2 -- -- 92
2019-10-18 07:00:00 13.5 8 Sudeste 13 Sudeste 0 -- -- 93
2019-10-18 06:00:00 13.4 13 Sudeste 19 Sudeste 0.4 -- -- 92
2019-10-18 05:00:00 13.6 11 Este 33 Sudeste 0 -- -- 89
2019-10-18 04:00:00 13.5 25 Sudeste 50 Sudeste 0.4 -- -- 88
2019-10-18 03:00:00 15.5 27 Sudeste 33 Sudeste 0 -- -- 71
2019-10-18 02:00:00 15.5 24 Sudeste 39 Sudeste 0 -- -- 71
2019-10-18 01:00:00 15 25 Sudeste 33 Sudeste 0 -- -- 72
2019-10-18 00:00:00 15.3 20 Sudeste 36 Sudeste 0 -- -- 70
2019-10-17 23:00:00 15.5 23 Sudeste 31 Sudeste 0 -- -- 67
2019-10-17 22:00:00 16.4 20 Sudeste 28 Sudeste 0 -- -- 63
2019-10-17 21:00:00 17.1 18 Sudeste 28 Sudeste 0 -- -- 61
2019-10-17 20:00:00 17.6 18 Sudeste 23 Sudeste 0 -- -- 61
2019-10-17 19:00:00 19.7 14 Sudeste 26 Sudeste 0 -- -- 54
2019-10-17 18:00:00 21 16 Sudeste 27 Sudeste 0 -- -- 49
2019-10-17 17:00:00 21.6 17 Sudeste 24 Sudeste 0 -- -- 46
2019-10-17 16:00:00 21.4 12 Sudeste 33 Sudeste 0 -- -- 47
2019-10-17 15:00:00 21.3 22 Sudeste 35 Este 0 -- -- 48
2019-10-17 14:00:00 20.2 21 Sudeste 31 Sudeste 0 -- -- 51
2019-10-17 13:00:00 17.4 18 Sudeste 28 Sudeste 0 -- -- 56
2019-10-17 12:00:00 16.5 19 Sudeste 24 Sudeste 0 -- -- 59
2019-10-17 11:00:00 14.2 2 Noroeste 8 Noroeste 0 -- -- 67
2019-10-17 10:00:00 13.1 4 Noroeste 6 Noroeste 0 -- -- 73
2019-10-17 09:00:00 12.6 0 Calma 14 Este 0 -- -- 71
2019-10-17 08:00:00 12.5 0 Calma 17 Sudeste 0 -- -- 71
2019-10-17 07:00:00 12.8 2 Sur 12 Este 0 -- -- 74
2019-10-17 06:00:00 12.9 3 Este 8 Este 0 -- -- 65
2019-10-17 05:00:00 12.5 5 Noroeste 6 Noroeste 0 -- -- 72
2019-10-17 04:00:00 12.4 3 Noroeste 8 Noroeste 0 -- -- 69
2019-10-17 03:00:00 12.2 3 Noroeste 6 Este 0 -- -- 69
2019-10-17 02:00:00 11.7 3 Norte 9 Noroeste 0 -- -- 70
2019-10-17 01:00:00 12.1 0 Calma 8 Norte 0 -- -- 69
2019-10-17 00:00:00 13.1 5 Norte 8 Noroeste 0 -- -- 63
2019-10-16 23:00:00 12.9 7 Noroeste 9 Noroeste 0 -- -- 64
2019-10-16 22:00:00 15 2 Sudeste 9 Sur 0 -- -- 54
2019-10-16 21:00:00 15.2 2 Sur 21 Sudeste 0 -- -- 56
2019-10-16 20:00:00 17.2 15 Sudeste 26 Sudeste 0 -- -- 50
2019-10-16 19:00:00 19.4 5 Oeste 9 Noroeste 0 -- -- 41
2019-10-16 18:00:00 20.7 5 Nordeste 11 Sur 0 -- -- 37
2019-10-16 17:00:00 21.6 6 Sudeste 21 Este 0 -- -- 38
2019-10-16 16:00:00 21.6 14 Sur 28 Sudeste 0 -- -- 40
2019-10-16 15:00:00 20.9 18 Sudeste 30 Sudeste 0 -- -- 43
2019-10-16 14:00:00 18.2 10 Sur 19 Sudeste 0 -- -- 53
2019-10-16 13:00:00 15 3 Sudeste 9 Sudeste 0 -- -- 63
2019-10-16 12:00:00 13.7 8 Sudeste 12 Sudeste 0 -- -- 66
2019-10-16 11:00:00 12 2 Sudeste 4 Sur 0 -- -- 71
2019-10-16 10:00:00 8.7 0 Calma 7 Noroeste 0 -- -- 83
2019-10-16 09:00:00 6.9 3 Noroeste 8 Noroeste 0 -- -- 87
2019-10-16 08:00:00 6.3 4 Noroeste 8 Noroeste 0 -- -- 86
2019-10-16 07:00:00 6.6 0 Calma 13 Noroeste 0 -- -- 86
2019-10-16 06:00:00 7.5 6 Noroeste 8 Norte 0 -- -- 82
2019-10-16 05:00:00 8 0 Calma 8 Noroeste 0 -- -- 81
2019-10-16 04:00:00 8.3 3 Noroeste 6 Noroeste 0 -- -- 79
2019-10-16 03:00:00 7.7 4 Norte 11 Noroeste 0 -- -- 84
2019-10-16 02:00:00 8.1 3 Norte 10 Noroeste 0 -- -- 81
2019-10-16 01:00:00 8.7 0 Calma 7 Este 0 -- -- 77
2019-10-16 00:00:00 9.9 0 Calma 6 Este 0 -- -- 72
2019-10-15 23:00:00 10.3 3 Este 6 Sur 0 -- -- 71
2019-10-15 22:00:00 11.4 2 Sudeste 8 Sur 0 -- -- 64
2019-10-15 21:00:00 13 0 Calma 6 Norte 0 -- -- 59
2019-10-15 20:00:00 14.4 0 Calma 10 Noroeste 0 -- -- 52
2019-10-15 19:00:00 15.5 8 Noroeste 16 Noroeste 0 -- -- 51
2019-10-15 18:00:00 16.8 13 Noroeste 28 Oeste 0 -- -- 45
2019-10-15 17:00:00 18.1 17 Oeste 37 Oeste 0 -- -- 40
2019-10-15 16:00:00 17.8 17 Oeste 33 Oeste 0 -- -- 40
2019-10-15 15:00:00 17.6 17 Oeste -- -- -- -- -- 44
2019-10-15 14:00:00 -- -- -- -- -- -- -- -- --
2019-10-15 13:00:00 -- -- -- -- -- -- -- -- --
2019-10-15 12:00:00 -- -- -- -- -- -- -- -- --
2019-10-15 11:00:00 -- -- -- -- -- -- -- -- --
2019-10-15 10:00:00 -- -- -- -- -- -- -- -- --
2019-10-15 09:00:00 -- -- -- -- -- -- -- -- --
2019-10-15 08:00:00 -- -- -- -- -- -- -- -- --
2019-10-15 07:00:00 -- -- -- -- -- -- -- -- --
2019-10-15 06:00:00 -- -- -- -- -- -- -- -- --
2019-10-15 05:00:00 -- -- -- -- -- -- -- -- --
2019-10-15 04:00:00 -- -- -- -- -- -- -- -- --
2019-10-15 03:00:00 -- -- -- -- -- -- -- -- --
2019-10-15 02:00:00 -- -- -- -- -- -- -- -- --
2019-10-15 01:00:00 -- -- -- -- -- -- -- -- --
2019-10-15 00:00:00 -- -- -- -- -- -- -- -- --
2019-10-14 23:00:00 -- -- -- -- -- -- -- -- --
2019-10-14 22:00:00 -- -- -- -- -- -- -- -- --
2019-10-14 21:00:00 -- -- -- -- -- -- -- -- --
2019-10-14 20:00:00 -- -- -- -- -- -- -- -- --
2019-10-14 19:00:00 19.4 16 Sudeste 30 Sudeste 0 -- -- 76
2019-10-14 18:00:00 19.7 18 Sudeste 39 Sudeste 0 -- -- 76
2019-10-14 17:00:00 20.2 23 Sudeste 33 Sudeste 0 -- -- 76
2019-10-14 16:00:00 19.7 19 Sudeste 48 Sudeste 4.2 -- -- 75
2019-10-14 15:00:00 22.5 48 Sudeste 71 Sudeste 0 -- -- 54
2019-10-14 14:00:00 20.8 44 Sudeste 58 Sudeste 0 -- -- 63
2019-10-14 13:00:00 21 48 Sudeste 66 Sudeste 0 -- -- 66
2019-10-14 12:00:00 20.2 42 Sudeste 71 Sudeste 0 -- -- 71
2019-10-14 11:00:00 19.4 42 Sudeste 60 Sudeste 0 -- -- 72
2019-10-14 10:00:00 18.5 35 Sudeste 60 Sudeste 0 -- -- 75
2019-10-14 09:00:00 18.2 35 Sudeste 53 Sudeste 0 -- -- 76
2019-10-14 08:00:00 18 33 Sudeste 63 Sudeste 0 -- -- 77
2019-10-14 07:00:00 17.6 39 Sudeste 57 Sudeste 0 -- -- 80
2019-10-14 06:00:00 17.3 27 Sudeste 61 Sudeste 0 -- -- 82
2019-10-14 05:00:00 17.9 44 Sudeste 73 Sudeste 0 -- -- 80
2019-10-14 04:00:00 18.2 39 Sudeste 55 Sudeste 0 -- -- 79
2019-10-14 03:00:00 18.6 40 Sudeste 55 Sudeste 0 -- -- 78
2019-10-14 02:00:00 18.7 31 Sudeste 57 Sudeste 0 -- -- 77
2019-10-14 01:00:00 19.1 38 Sudeste 51 Sudeste 0 -- -- 77
2019-10-14 00:00:00 20 37 Sudeste 50 Sudeste 0 -- -- 74